createdAt,value
2019-05-20T00:00:56.701Z,17.42
2019-05-20T00:03:23.522Z,17.35
2019-05-20T00:05:50.303Z,17.27
2019-05-20T00:08:17.091Z,17.22
2019-05-20T00:10:44.387Z,16.83
2019-05-20T00:13:12.181Z,16.86
2019-05-20T00:15:38.973Z,16.72
2019-05-20T00:18:05.790Z,16.67
2019-05-20T00:20:32.520Z,16.81
2019-05-20T00:22:59.171Z,16.82
2019-05-20T00:25:26.006Z,16.88
2019-05-20T00:27:52.870Z,16.88
2019-05-20T00:30:19.750Z,16.94
2019-05-20T00:32:46.630Z,16.88
2019-05-20T00:35:13.566Z,16.98
2019-05-20T00:37:40.271Z,16.91
2019-05-20T00:40:07.703Z,16.74
2019-05-20T00:42:35.865Z,16.64
2019-05-20T00:45:03.544Z,16.72
2019-05-20T00:47:30.322Z,16.77
2019-05-20T00:49:58.029Z,16.55
2019-05-20T00:52:24.756Z,16.69
2019-05-20T00:54:52.995Z,16.65
2019-05-20T00:57:19.738Z,16.57
2019-05-20T00:59:46.554Z,16.48
2019-05-20T01:02:13.427Z,16.39
2019-05-20T01:04:40.244Z,16.16
2019-05-20T01:07:06.993Z,15.87
2019-05-20T01:09:33.842Z,15.87
2019-05-20T01:12:00.627Z,15.73
2019-05-20T01:14:27.431Z,15.64
2019-05-20T01:16:54.201Z,15.39
2019-05-20T01:19:20.900Z,15.23
2019-05-20T01:21:47.602Z,15.24
2019-05-20T01:24:15.446Z,15.05
2019-05-20T01:26:42.218Z,14.88
2019-05-20T01:29:08.897Z,14.90
2019-05-20T01:31:35.642Z,14.78
2019-05-20T01:34:02.465Z,14.70
2019-05-20T01:36:29.182Z,14.63
2019-05-20T01:38:55.943Z,14.73
2019-05-20T01:41:23.002Z,14.67
2019-05-20T01:43:49.943Z,14.50
2019-05-20T01:46:16.701Z,14.51
2019-05-20T01:48:43.399Z,14.45
2019-05-20T01:51:10.135Z,14.38
2019-05-20T01:53:36.987Z,14.39
2019-05-20T01:56:03.761Z,14.35
2019-05-20T01:58:30.447Z,14.24
2019-05-20T02:00:57.190Z,14.13
2019-05-20T02:03:31.837Z,14.14
2019-05-20T02:05:53.009Z,14.10
2019-05-20T02:08:19.734Z,13.99
2019-05-20T02:10:46.543Z,13.98
2019-05-20T02:13:13.347Z,14.01
2019-05-20T02:15:48.036Z,13.95
2019-05-20T02:18:14.792Z,13.84
2019-05-20T02:20:41.569Z,13.86
2019-05-20T02:23:15.323Z,13.84
2019-05-20T02:25:47.015Z,13.79
2019-05-20T02:28:14.032Z,13.79
2019-05-20T02:30:40.868Z,13.75
2019-05-20T02:33:07.552Z,13.71
2019-05-20T02:35:34.314Z,13.72
2019-05-20T02:38:01.561Z,13.60
2019-05-20T02:40:28.265Z,13.57
2019-05-20T02:42:55.106Z,13.51
2019-05-20T02:45:21.824Z,13.41
2019-05-20T02:47:48.951Z,13.47
2019-05-20T02:50:15.616Z,13.39
2019-05-20T02:52:42.447Z,13.43
2019-05-20T02:55:09.427Z,13.47
2019-05-20T02:57:36.122Z,13.46
2019-05-20T03:00:05.811Z,13.42
2019-05-20T03:02:32.697Z,13.38
2019-05-20T03:04:59.449Z,13.26
2019-05-20T03:07:26.268Z,13.12
2019-05-20T03:09:52.959Z,13.15
2019-05-20T03:12:19.636Z,13.14
2019-05-20T03:14:46.350Z,13.10
2019-05-20T03:17:13.049Z,13.12
2019-05-20T03:19:39.971Z,13.15
2019-05-20T03:22:06.739Z,13.15
2019-05-20T03:24:33.452Z,13.10
2019-05-20T03:27:00.822Z,13.15
2019-05-20T03:29:27.766Z,13.11
2019-05-20T03:31:54.432Z,13.15
2019-05-20T03:34:43.766Z,13.13
2019-05-20T03:36:50.068Z,13.15
2019-05-20T03:39:16.732Z,13.16
2019-05-20T03:41:44.588Z,13.11
2019-05-20T03:44:11.394Z,13.14
2019-05-20T03:46:38.163Z,13.14
2019-05-20T03:49:04.997Z,13.13
2019-05-20T03:51:31.802Z,13.17
2019-05-20T03:53:58.507Z,13.29
2019-05-20T03:56:25.193Z,13.19
2019-05-20T03:58:52.090Z,13.21
2019-05-20T04:01:18.779Z,13.29
2019-05-20T04:03:45.490Z,13.20
2019-05-20T04:06:12.249Z,13.23
2019-05-20T04:08:38.964Z,13.30
2019-05-20T04:11:05.723Z,13.35
2019-05-20T04:13:34.776Z,13.36
2019-05-20T04:16:01.230Z,13.41
2019-05-20T04:18:27.984Z,13.41
2019-05-20T04:20:54.738Z,13.45
2019-05-20T04:23:21.802Z,13.48
2019-05-20T04:25:48.540Z,13.56
2019-05-20T04:28:15.323Z,13.61
2019-05-20T04:30:42.092Z,13.69
2019-05-20T04:33:08.762Z,13.80
2019-05-20T04:35:35.479Z,13.85
2019-05-20T04:38:02.391Z,13.90
2019-05-20T04:40:29.142Z,14.03
2019-05-20T04:42:55.989Z,14.05
2019-05-20T04:45:22.753Z,14.16
2019-05-20T04:47:49.521Z,14.05
2019-05-20T04:50:16.397Z,14.17
2019-05-20T04:52:43.077Z,14.29
2019-05-20T04:55:10.243Z,14.45
2019-05-20T04:57:37.097Z,14.54
2019-05-20T05:00:06.537Z,14.61
2019-05-20T05:02:33.234Z,14.60
2019-05-20T05:04:59.972Z,14.72
2019-05-20T05:07:26.735Z,14.49
2019-05-20T05:09:53.556Z,14.58
2019-05-20T05:12:20.315Z,14.78
2019-05-20T05:14:46.982Z,14.77
2019-05-20T05:17:13.683Z,14.90
2019-05-20T05:19:40.444Z,15.02
2019-05-20T05:22:07.216Z,15.18
2019-05-20T05:24:35.018Z,15.37
2019-05-20T05:27:03.350Z,15.51
2019-05-20T05:29:30.048Z,15.55
2019-05-20T05:31:56.751Z,15.73
2019-05-20T05:34:23.480Z,15.75
2019-05-20T05:36:50.237Z,15.97
2019-05-20T05:39:16.968Z,16.38
2019-05-20T05:41:43.930Z,16.38
2019-05-20T05:44:10.673Z,16.37
2019-05-20T05:46:37.476Z,16.37
2019-05-20T05:49:04.522Z,16.49
2019-05-20T05:51:31.471Z,16.47
2019-05-20T05:53:58.266Z,16.62
2019-05-20T05:56:25.402Z,16.60
2019-05-20T05:58:52.345Z,16.69
2019-05-20T06:01:19.127Z,16.68
2019-05-20T06:03:46.022Z,16.94
2019-05-20T06:06:13.545Z,16.94
2019-05-20T06:08:40.569Z,16.94
2019-05-20T06:11:07.562Z,16.95
2019-05-20T06:13:34.250Z,16.95
2019-05-20T06:16:00.979Z,16.92
2019-05-20T06:18:27.876Z,17.13
2019-05-20T06:20:54.723Z,17.48
2019-05-20T06:23:21.605Z,17.68
2019-05-20T06:25:48.731Z,18.06
2019-05-20T06:28:15.477Z,18.73
2019-05-20T06:30:43.431Z,19.33
2019-05-20T06:33:10.179Z,19.36
2019-05-20T06:35:37.186Z,18.58
2019-05-20T06:38:08.895Z,18.89
2019-05-20T06:40:35.701Z,18.94
2019-05-20T06:43:02.644Z,18.96
2019-05-20T06:45:29.355Z,18.83
2019-05-20T06:47:56.146Z,18.93
2019-05-20T06:50:22.970Z,19.00
2019-05-20T06:52:49.839Z,19.05
2019-05-20T06:55:16.831Z,19.05
2019-05-20T06:57:43.611Z,19.16
2019-05-20T07:00:10.816Z,18.97
2019-05-20T07:02:37.838Z,19.29
2019-05-20T07:05:05.910Z,19.18
2019-05-20T07:07:32.663Z,19.02
2019-05-20T07:09:59.425Z,19.43
2019-05-20T07:12:40.055Z,19.58
2019-05-20T07:14:54.820Z,19.38
2019-05-20T07:17:21.658Z,19.42
2019-05-20T07:19:48.361Z,19.45
2019-05-20T07:22:15.404Z,19.63
2019-05-20T07:24:42.184Z,19.71
2019-05-20T07:27:09.964Z,19.90
2019-05-20T07:29:36.704Z,20.18
2019-05-20T07:32:03.632Z,20.38
2019-05-20T07:34:30.383Z,20.71
2019-05-20T07:37:03.202Z,20.95
2019-05-20T07:39:26.066Z,20.93
2019-05-20T07:41:53.109Z,20.85
2019-05-20T07:44:19.792Z,20.68
2019-05-20T07:46:46.729Z,20.59
2019-05-20T07:49:14.313Z,20.54
2019-05-20T07:51:42.406Z,20.72
2019-05-20T07:54:10.051Z,20.94
2019-05-20T07:56:40.448Z,21.07
2019-05-20T07:59:10.852Z,21.01
2019-05-20T08:01:38.818Z,21.07
2019-05-20T08:04:05.589Z,21.03
2019-05-20T08:06:33.338Z,21.00
2019-05-20T08:09:00.160Z,21.00
2019-05-20T08:11:27.173Z,20.94
2019-05-20T08:13:53.939Z,20.95
2019-05-20T08:16:20.604Z,21.04
2019-05-20T08:18:47.499Z,20.86
2019-05-20T08:21:14.289Z,20.90
2019-05-20T08:23:41.147Z,21.09
2019-05-20T08:26:07.997Z,21.00
2019-05-20T08:28:34.917Z,21.01
2019-05-20T08:31:01.641Z,20.96
2019-05-20T08:33:28.708Z,21.15
2019-05-20T08:35:55.517Z,21.08
2019-05-20T08:38:22.336Z,21.07
2019-05-20T08:40:49.200Z,21.09
2019-05-20T08:43:15.990Z,21.21
2019-05-20T08:45:42.679Z,21.27
2019-05-20T08:48:09.691Z,21.25
2019-05-20T08:50:36.587Z,21.26
2019-05-20T08:53:03.302Z,21.20
2019-05-20T08:55:30.892Z,21.21
2019-05-20T08:57:57.617Z,21.27
2019-05-20T09:00:24.960Z,20.99
2019-05-20T09:02:52.237Z,21.05
2019-05-20T09:05:19.035Z,21.12
2019-05-20T09:08:01.636Z,21.22
2019-05-20T09:10:18.161Z,21.37
2019-05-20T09:12:44.157Z,21.34
2019-05-20T09:15:11.867Z,21.20
2019-05-20T09:17:39.308Z,21.32
2019-05-20T09:20:07.203Z,21.55
2019-05-20T09:22:33.911Z,21.38
2019-05-20T09:25:00.743Z,21.65
2019-05-20T09:27:27.682Z,21.44
2019-05-20T09:29:54.487Z,21.64
2019-05-20T09:32:21.357Z,21.95
2019-05-20T09:34:48.894Z,22.07
2019-05-20T09:37:15.575Z,22.13
2019-05-20T09:39:42.218Z,22.20
2019-05-20T09:42:09.197Z,22.31
2019-05-20T09:44:36.089Z,22.13
2019-05-20T09:47:04.006Z,22.11
2019-05-20T09:49:30.970Z,22.17
2019-05-20T09:51:57.715Z,22.22
2019-05-20T09:54:24.419Z,22.05
2019-05-20T09:56:51.237Z,22.04
2019-05-20T09:59:17.982Z,22.11
2019-05-20T10:01:46.088Z,21.71
2019-05-20T10:04:12.797Z,22.02
2019-05-20T10:06:39.653Z,22.27
2019-05-20T10:09:06.532Z,22.57
2019-05-20T10:11:33.274Z,22.56
2019-05-20T10:14:00.042Z,22.51
2019-05-20T10:16:27.027Z,22.38
2019-05-20T10:18:55.542Z,22.54
2019-05-20T10:21:22.362Z,22.50
2019-05-20T10:23:49.045Z,22.71
2019-05-20T10:26:15.937Z,22.93
2019-05-20T10:28:46.523Z,22.88
2019-05-20T10:31:11.302Z,22.80
2019-05-20T10:33:38.017Z,22.68
2019-05-20T10:36:04.862Z,23.06
2019-05-20T10:38:31.589Z,23.10
2019-05-20T10:40:58.554Z,23.09
2019-05-20T10:43:25.317Z,23.21
2019-05-20T10:45:52.048Z,23.54
2019-05-20T10:48:18.721Z,23.65
2019-05-20T10:50:45.683Z,23.35
2019-05-20T10:53:12.459Z,23.66
2019-05-20T10:55:39.288Z,23.73
2019-05-20T10:58:06.153Z,23.30
2019-05-20T11:00:32.871Z,23.40
2019-05-20T11:02:59.652Z,23.43
2019-05-20T11:05:26.394Z,23.30
2019-05-20T11:07:53.202Z,23.41
2019-05-20T11:10:20.456Z,23.22
2019-05-20T11:12:47.221Z,23.25
2019-05-20T11:15:14.347Z,23.29
2019-05-20T11:17:41.113Z,23.41
2019-05-20T11:20:12.047Z,23.36
2019-05-20T11:22:38.818Z,23.46
2019-05-20T11:25:06.496Z,23.63
2019-05-20T11:27:33.185Z,23.53
2019-05-20T11:29:59.955Z,23.66
2019-05-20T11:32:26.791Z,23.45
2019-05-20T11:34:53.574Z,22.96
2019-05-20T11:37:20.451Z,22.61
2019-05-20T11:39:47.435Z,22.53
2019-05-20T11:42:14.185Z,22.44
2019-05-20T11:44:40.854Z,22.48
2019-05-20T11:47:07.784Z,22.43
2019-05-20T11:49:34.478Z,22.42
2019-05-20T11:52:01.294Z,22.33
2019-05-20T11:54:28.042Z,22.20
2019-05-20T11:56:54.898Z,22.20
2019-05-20T11:59:21.691Z,22.27
2019-05-20T12:01:48.601Z,22.34
2019-05-20T12:04:15.414Z,22.32
2019-05-20T12:06:42.174Z,22.24
2019-05-20T12:09:09.078Z,22.29
2019-05-20T12:11:35.734Z,22.38
2019-05-20T12:14:02.546Z,22.49
2019-05-20T12:16:29.336Z,22.45
2019-05-20T12:18:56.006Z,22.56
2019-05-20T12:21:22.691Z,22.96
2019-05-20T12:23:49.436Z,22.98
2019-05-20T12:26:16.111Z,22.94
2019-05-20T12:28:42.812Z,22.83
2019-05-20T12:31:09.716Z,22.69
2019-05-20T12:33:36.387Z,22.46
2019-05-20T12:36:03.685Z,22.42
2019-05-20T12:38:30.572Z,22.18
2019-05-20T12:40:57.320Z,22.04
2019-05-20T12:43:24.020Z,21.91
2019-05-20T12:45:50.800Z,21.90
2019-05-20T12:48:17.506Z,21.75
2019-05-20T12:50:44.450Z,21.51
2019-05-20T12:53:11.226Z,21.04
2019-05-20T12:55:38.014Z,20.41
2019-05-20T12:58:04.999Z,20.21
2019-05-20T13:00:31.735Z,20.02
2019-05-20T13:02:58.518Z,19.34
2019-05-20T13:05:25.265Z,18.67
2019-05-20T13:07:52.137Z,18.53
2019-05-20T13:10:31.266Z,18.15
2019-05-20T13:12:48.241Z,18.04
2019-05-20T13:15:16.411Z,18.14
2019-05-20T13:17:45.108Z,18.28
2019-05-20T13:20:12.010Z,18.12
2019-05-20T13:22:39.018Z,17.88
2019-05-20T13:25:05.888Z,17.84
2019-05-20T13:27:32.553Z,17.74
2019-05-20T13:29:59.366Z,17.67
2019-05-20T13:32:26.118Z,17.36
2019-05-20T13:34:52.809Z,17.33
2019-05-20T13:37:19.633Z,17.22
2019-05-20T13:39:46.404Z,16.92
2019-05-20T13:42:13.218Z,16.79
2019-05-20T13:44:39.893Z,16.68
2019-05-20T13:47:06.599Z,16.70
2019-05-20T13:49:33.638Z,16.65
2019-05-20T13:52:00.422Z,16.12
2019-05-20T13:54:27.198Z,16.12
2019-05-20T13:56:53.980Z,15.92
2019-05-20T13:59:20.667Z,15.66
2019-05-20T14:01:47.418Z,15.64
2019-05-20T14:04:14.228Z,15.28
2019-05-20T14:06:40.949Z,15.29
2019-05-20T14:09:07.995Z,15.30
2019-05-20T14:11:35.059Z,15.42
2019-05-20T14:14:01.989Z,15.18
2019-05-20T14:16:29.798Z,15.12
2019-05-20T14:18:56.647Z,14.99
2019-05-20T14:21:23.326Z,15.06
2019-05-20T14:23:50.233Z,15.03
2019-05-20T14:26:17.055Z,14.93
2019-05-20T14:28:43.848Z,14.62
2019-05-20T14:31:10.642Z,14.53
2019-05-20T14:33:37.403Z,14.59
2019-05-20T14:36:04.234Z,14.53
2019-05-20T14:38:30.974Z,14.43
2019-05-20T14:40:57.765Z,14.38
2019-05-20T14:43:24.471Z,14.42
2019-05-20T14:45:51.360Z,14.32
2019-05-20T14:48:18.198Z,14.30
2019-05-20T14:50:45.005Z,14.22
2019-05-20T14:53:11.826Z,14.28
2019-05-20T14:55:42.592Z,14.37
2019-05-20T14:58:07.235Z,14.43
2019-05-20T15:00:34.066Z,14.51
2019-05-20T15:03:00.904Z,14.37
2019-05-20T15:05:27.599Z,14.38
2019-05-20T15:07:54.452Z,14.42
2019-05-20T15:10:21.475Z,14.33
2019-05-20T15:12:48.274Z,14.35
2019-05-20T15:15:16.237Z,14.30
2019-05-20T15:17:43.284Z,14.26
2019-05-20T15:20:10.604Z,14.32
2019-05-20T15:22:37.289Z,14.23
2019-05-20T15:25:04.249Z,14.39
2019-05-20T15:27:31.039Z,14.40
2019-05-20T15:29:57.733Z,14.46
2019-05-20T15:32:24.497Z,14.54
2019-05-20T15:34:51.240Z,14.60
2019-05-20T15:37:17.997Z,14.57
2019-05-20T15:39:44.861Z,14.72
2019-05-20T15:42:11.671Z,14.77
2019-05-20T15:44:38.704Z,14.77
2019-05-20T15:47:05.596Z,14.74
2019-05-20T15:49:32.522Z,14.80
2019-05-20T15:51:59.632Z,14.80
2019-05-20T15:54:26.427Z,14.78
2019-05-20T15:56:54.465Z,14.88
2019-05-20T15:59:21.202Z,14.76
2019-05-20T16:01:48.053Z,14.75
2019-05-20T16:04:14.904Z,14.78
2019-05-20T16:06:41.624Z,14.80
2019-05-20T16:09:08.513Z,14.76
2019-05-20T16:11:35.454Z,14.83
2019-05-20T16:14:02.535Z,14.78
2019-05-20T16:16:30.433Z,14.77
2019-05-20T16:18:57.346Z,14.81
2019-05-20T16:21:24.167Z,14.83
2019-05-20T16:23:51.272Z,14.77
2019-05-20T16:26:18.278Z,14.74
2019-05-20T16:28:46.112Z,14.63
2019-05-20T16:31:12.977Z,14.69
2019-05-20T16:33:39.991Z,14.69
2019-05-20T16:36:06.789Z,14.68
2019-05-20T16:38:33.542Z,14.69
2019-05-20T16:41:00.242Z,14.63
2019-05-20T16:43:27.285Z,14.66
2019-05-20T16:45:54.083Z,14.67
2019-05-20T16:48:20.853Z,14.59
2019-05-20T16:50:48.673Z,14.54
2019-05-20T16:53:15.442Z,14.54
2019-05-20T16:55:42.236Z,14.49
2019-05-20T16:58:08.921Z,14.46
2019-05-20T17:00:35.680Z,14.55
2019-05-20T17:03:02.519Z,14.57
2019-05-20T17:05:29.322Z,14.59
2019-05-20T17:07:56.175Z,14.53
2019-05-20T17:10:23.063Z,14.61
2019-05-20T17:12:50.202Z,14.61
2019-05-20T17:15:17.191Z,14.60
2019-05-20T17:17:45.092Z,14.52
2019-05-20T17:20:12.103Z,14.52
2019-05-20T17:22:38.909Z,14.47
2019-05-20T17:25:07.112Z,14.42
2019-05-20T17:27:35.282Z,14.45
2019-05-20T17:30:04.394Z,14.43
2019-05-20T17:32:32.281Z,14.43
2019-05-20T17:34:58.949Z,14.43
2019-05-20T17:37:25.779Z,14.46
2019-05-20T17:39:52.586Z,14.42
2019-05-20T17:42:19.580Z,14.41
2019-05-20T17:44:46.311Z,14.44
2019-05-20T17:47:13.371Z,14.42
2019-05-20T17:49:40.115Z,14.37
2019-05-20T17:52:07.000Z,14.30
2019-05-20T17:54:33.706Z,14.28
2019-05-20T17:57:00.598Z,14.15
2019-05-20T17:59:27.509Z,14.03
2019-05-20T18:01:54.179Z,14.04
2019-05-20T18:04:22.014Z,13.87
2019-05-20T18:06:48.753Z,13.82
2019-05-20T18:09:15.542Z,13.71
2019-05-20T18:11:42.494Z,13.60
2019-05-20T18:14:09.191Z,13.62
2019-05-20T18:16:35.889Z,13.57
2019-05-20T18:19:02.847Z,13.44
2019-05-20T18:21:29.555Z,13.51
2019-05-20T18:23:56.294Z,13.48
2019-05-20T18:26:23.183Z,13.46
2019-05-20T18:28:49.875Z,13.31
2019-05-20T18:31:31.316Z,13.30
2019-05-20T18:33:45.358Z,13.33
2019-05-20T18:36:13.157Z,13.32
2019-05-20T18:38:39.957Z,13.33
2019-05-20T18:41:07.009Z,13.43
2019-05-20T18:43:33.715Z,13.42
2019-05-20T18:46:00.429Z,13.29
2019-05-20T18:48:27.194Z,13.25
2019-05-20T18:50:53.977Z,13.33
2019-05-20T18:53:20.688Z,13.39
2019-05-20T18:55:47.408Z,13.44
2019-05-20T18:58:14.219Z,13.42
2019-05-20T19:00:41.017Z,13.38
2019-05-20T19:03:07.898Z,13.29
2019-05-20T19:05:34.658Z,13.35
2019-05-20T19:08:01.589Z,13.34
2019-05-20T19:10:28.548Z,13.46
2019-05-20T19:12:56.298Z,13.41
2019-05-20T19:15:23.163Z,13.45
2019-05-20T19:17:50.018Z,13.37
2019-05-20T19:20:17.049Z,13.34
2019-05-20T19:22:43.861Z,13.22
2019-05-20T19:25:10.742Z,13.24
2019-05-20T19:27:37.540Z,13.24
2019-05-20T19:30:04.859Z,13.12
2019-05-20T19:32:31.892Z,13.14
2019-05-20T19:34:58.664Z,13.19
2019-05-20T19:37:25.764Z,13.01
2019-05-20T19:39:52.594Z,13.01
2019-05-20T19:42:19.329Z,13.01
2019-05-20T19:44:47.099Z,12.99
2019-05-20T19:47:13.838Z,13.04
2019-05-20T19:49:42.414Z,13.13
2019-05-20T19:52:09.192Z,13.01
2019-05-20T19:54:36.674Z,12.87
2019-05-20T19:57:03.339Z,12.82
2019-05-20T19:59:30.018Z,12.88
2019-05-20T20:01:56.779Z,12.94
2019-05-20T20:04:23.457Z,12.84
2019-05-20T20:06:51.164Z,12.83
2019-05-20T20:09:17.901Z,12.79
2019-05-20T20:11:44.611Z,12.90
2019-05-20T20:14:11.320Z,12.80
2019-05-20T20:16:38.127Z,12.74
2019-05-20T20:19:04.825Z,12.84
2019-05-20T20:21:31.510Z,12.73
2019-05-20T20:23:58.262Z,12.76
2019-05-20T20:26:25.258Z,12.80
2019-05-20T20:28:52.033Z,12.72
2019-05-20T20:31:18.857Z,12.66
2019-05-20T20:33:45.560Z,12.74
2019-05-20T20:36:12.433Z,12.66
2019-05-20T20:38:39.123Z,12.48
2019-05-20T20:41:05.790Z,12.46
2019-05-20T20:43:32.560Z,12.39
2019-05-20T20:45:59.234Z,12.48
2019-05-20T20:48:25.888Z,12.34
2019-05-20T20:50:52.655Z,12.38
2019-05-20T20:53:19.359Z,12.38
2019-05-20T20:55:46.077Z,12.24
2019-05-20T20:58:12.984Z,12.30
2019-05-20T21:00:39.663Z,12.22
2019-05-20T21:03:06.325Z,12.25
2019-05-20T21:05:33.074Z,12.10
2019-05-20T21:07:59.800Z,12.05
2019-05-20T21:10:26.472Z,11.98
2019-05-20T21:12:53.362Z,11.97
2019-05-20T21:15:20.043Z,11.88
2019-05-20T21:17:46.713Z,11.95
2019-05-20T21:20:13.590Z,11.83
2019-05-20T21:22:40.252Z,11.77
2019-05-20T21:25:06.942Z,11.79
2019-05-20T21:27:33.648Z,11.67
2019-05-20T21:30:00.574Z,11.58
2019-05-20T21:32:27.263Z,11.52
2019-05-20T21:34:54.006Z,11.56
2019-05-20T21:37:20.740Z,11.52
2019-05-20T21:39:48.408Z,11.46
2019-05-20T21:42:15.056Z,11.32
2019-05-20T21:44:41.735Z,11.17
2019-05-20T21:47:08.419Z,11.22
2019-05-20T21:49:35.124Z,11.06
2019-05-20T21:52:01.898Z,11.10
2019-05-20T21:54:28.737Z,10.95
2019-05-20T21:56:56.665Z,10.94
2019-05-20T21:59:23.447Z,10.90
2019-05-20T22:01:50.406Z,10.90
2019-05-20T22:04:17.147Z,10.77
2019-05-20T22:06:44.128Z,10.67
2019-05-20T22:09:10.827Z,10.71
2019-05-20T22:11:37.660Z,10.70
2019-05-20T22:14:04.407Z,10.69
2019-05-20T22:16:31.317Z,10.60
2019-05-20T22:18:57.987Z,10.55
2019-05-20T22:21:30.545Z,10.40
2019-05-20T22:23:59.141Z,10.26
2019-05-20T22:26:25.873Z,10.26
2019-05-20T22:28:52.570Z,10.25
2019-05-20T22:31:19.276Z,10.27
2019-05-20T22:33:46.164Z,10.35
2019-05-20T22:36:12.808Z,10.21
2019-05-20T22:38:39.488Z,10.21
2019-05-20T22:41:06.261Z,10.18
2019-05-20T22:43:32.947Z,10.08
2019-05-20T22:45:59.619Z,10.02
2019-05-20T22:48:26.341Z,10.03
2019-05-20T22:50:53.047Z,9.96
2019-05-20T22:53:19.817Z,9.94
2019-05-20T22:55:46.537Z,9.94
2019-05-20T22:58:13.268Z,10.05
2019-05-20T23:00:40.036Z,10.00
2019-05-20T23:03:06.708Z,10.00
2019-05-20T23:05:33.561Z,10.04
2019-05-20T23:08:00.320Z,9.98
2019-05-20T23:10:26.998Z,9.71
2019-05-20T23:12:53.683Z,9.68
2019-05-20T23:15:20.442Z,9.59
2019-05-20T23:17:47.165Z,9.51
2019-05-20T23:20:13.911Z,9.56
2019-05-20T23:22:40.666Z,9.55
2019-05-20T23:25:07.567Z,9.54
2019-05-20T23:27:34.368Z,9.73
2019-05-20T23:30:01.107Z,9.66
2019-05-20T23:32:27.786Z,9.67
2019-05-20T23:34:54.525Z,9.63
2019-05-20T23:37:21.554Z,9.57
2019-05-20T23:39:48.248Z,9.68
2019-05-20T23:42:15.942Z,9.48
2019-05-20T23:44:42.691Z,9.49
2019-05-20T23:47:09.443Z,9.53
2019-05-20T23:49:36.140Z,9.72
2019-05-20T23:52:02.899Z,9.67
2019-05-20T23:54:29.582Z,9.65
2019-05-20T23:56:56.254Z,9.56
2019-05-20T23:59:23.103Z,9.57
